Home > Products > Valid Products > MTR

000
SAUS42 KCHS 271658
MTRNBC
METAR KNBC 271656Z 11006KT 10SM CLR 28/16 A3013 RMK AO2 SLP203
T02830156





000
SAUS42 KCHS 271457
MTRNBC
METAR KNBC 271456Z 12006KT 10SM CLR 27/16 A3014 RMK AO2 SLP206
T02670161 53002





000
SAUS42 KCHS 271057
MTRNBC
METAR KNBC 271056Z 00000KT 9SM CLR 19/18 A3013 RMK AO2 SLP202
T01890178





000
SAUS42 KCHS 270657
MTRNBC
METAR KNBC 270656Z AUTO 00000KT 10SM CLR 21/18 A3010 RMK AO2 SLP193
T02060183 $





000
SAUS42 KCHS 270457
MTRNBC
METAR KNBC 270456Z AUTO 17003KT 10SM CLR 21/18 A3013 RMK AO2 SLP203
T02110178 403000200





000
SAUS42 KCHS 270058
MTRNBC
METAR KNBC 270056Z 00000KT 10SM CLR 23/18 A3013 RMK AO2 SLP203
T02330183





000
SAUS42 KCHS 262357
MTRNBC
METAR KNBC 262356Z 15003KT 10SM CLR 25/18 A3011 RMK AO2 SLP197
T02500178 10300 20250 56008





000
SAUS42 KCHS 262158
MTRNBC
METAR KNBC 262156Z 16004KT 10SM FEW040 28/16 A3012 RMK AO2 SLP198
T02830156





000
SAUS42 KCHS 261658
MTRNBC
METAR KNBC 261656Z VRB04KT 10SM FEW042 29/19 A3019 RMK AO2 SLP224
T02940189





000
SAUS42 KCHS 261557
MTRNBC
METAR KNBC 261556Z 13004KT 10SM FEW040 29/18 A3021 RMK AO2 SLP229
T02890178





000
SAUS42 KCHS 261257
MTRNBC
METAR KNBC 261256Z AUTO 21006KT 10SM CLR A3022 RMK AO2 SLP235 $





000
SAUS42 KCHS 261157
MTRNBC
METAR KNBC 261156Z 00000KT 10SM FEW085 23/21 A3021 RMK AO2 SLP231
T02330211 10233 20200 53011





000
SAUS42 KCHS 260557
MTRNBC
METAR KNBC 260556Z AUTO 19004KT 10SM CLR 23/19 A3019 RMK AO2 SLP222
T02330194 10261 20233 58009 $





000
SAUS42 KCHS 260257
MTRNBC
METAR KNBC 260256Z 10SM CLR 24/19 A3021 RMK AO2 SLP231 T02390194
53011 $





000
SAUS42 KCHS 252257
MTRNBC
METAR KNBC 252256Z 15004KT 10SM FEW250 28/17 A3017 RMK AO2 SLP217
T02780172 $





000
SAUS42 KCHS 252158
MTRNBC
METAR KNBC 252156Z 16005KT 10SM FEW060 SCT250 29/17 A3018 RMK AO2
SLP219 T02890172





000
SAUS42 KCHS 251857
MTRNBC
METAR KNBC 251856Z 15003KT 10SM FEW060 FEW070 SCT250 31/18 A3022 RMK
AO2 SLP234 T03060183





000
SAUS42 KCHS 251757
MTRNBC
METAR KNBC 251756Z 00000KT 10SM FEW050 SCT250 28/18 A3023 RMK AO2
SLP238 T02830178 58006





000
SAUS42 KCHS 251658
MTRNBC
METAR KNBC 251656Z 16003KT 10SM SCT250 30/18 A3024 RMK AO2 SLP241
T03000178





000
SAUS42 KCHS 251457
MTRNBC
METAR KNBC 251456Z 20007KT 10SM CLR 28/18 A3025 RMK AO2 SLP244
T02780178 51007





000
SAUS42 KCHS 251358
MTRNBC
METAR KNBC 251356Z 24006KT 10SM CLR 26/18 A3025 RMK AO2 SLP244
T02560183





000
SAUS42 KCHS 251257
MTRNBC
METAR KNBC 251256Z 24005KT 10SM FEW085 SCT250 23/19 A3025 RMK AO2
SLP244 T02330194





000
SAUS42 KCHS 251157
MTRNBC
METAR KNBC 251156Z 00000KT 10SM FEW085 21/19 A3023 RMK AO2 SLP238
T02110194 10211 20183 53016





000
SAUS42 KCHS 250800
MTRNBC
SPECI KNBC 250759Z AUTO 00000KT 4SM BR CLR 19/19 A3019 RMK AO2
T01940189 $





000
SAUS42 KCHS 250742
MTRNBC
SPECI KNBC 250741Z AUTO 00000KT 1 3/4SM BR CLR 19/18 A3018 RMK AO2
T01890178 $





000
SAUS42 KCHS 250657
MTRNBC
METAR KNBC 250656Z AUTO VRB03KT 10SM CLR 19/17 A3018 RMK AO2 SLP221
T01890172 $





000
SAUS42 KCHS 250558
MTRNBC
METAR KNBC 250556Z AUTO 00000KT 10SM SCT080 21/19 A3018 RMK AO2
SLP221 T02060189 10244 20200 51002 $





000
SAUS42 KCHS 250358
MTRNBC
METAR KNBC 250356Z AUTO 00000KT 10SM CLR 23/19 A3019 RMK AO2 SLP223
T02330194 $





000
SAUS42 KCHS 250058
MTRNBC
METAR KNBC 250056Z 18004KT 10SM CLR 23/18 A3015 RMK AO2 SLP209
T02330183 $





000
SAUS42 KCHS 242357
MTRNBC
METAR KNBC 242356Z 17004KT 10SM FEW095 24/18 A3013 RMK AO2 SLP204
T02440178 10289 20244 53002 $





000
SAUS42 KCHS 241958
MTRNBC
METAR KNBC 241956Z 15005KT 10SM FEW050 SCT250 28/19 A3013 RMK AO2
SLP203 T02830189 $





    US Dept of Commerce
    National Oceanic and Atmospheric Administration
    National Weather Service
    1325 East West Highway
    Silver Spring, MD 20910
    Page Author: NWS Internet Services Team
Disclaimer
Information Quality
Credits
Glossary
Privacy Policy
Freedom of Information Act (FOIA)
About Us
Career Opportunities